McAdenville, North Carolina
Current Conditions -  °F | °C
As of 8:54 AM on Monday 22 Dec 2014 (Local Time) from KAKH Reporting Station
Haze Haze  
Wind Chill: 33°   Ceiling: 500
Heat Index: 40°   Visibility: 1.5mi
Dew Point: 37°   Wind: 10mph
Humidity: 89%   Direction: 50°NE
Pressure: 30.13"   Gusts: NA
Location:  35.26°N, 81.08°W
Report Text: KAKH 221354Z AUTO 05009KT 1 1/2SM BR OVC005 04/03 A3013 RMK AO2 RAB1256E06 SLP205 P0000 T00440028
Loading
Personal Weather Stations






























Interactive Weather Map New forecast layout! Learn more

10-Day Weather Forecast

Advertisements
Track Severe Weather on mobile